La Harpe, Illinois
Current Conditions -  °F | °C
As of 3:09 AM on Friday 31 Oct 2014 (Local Time) from KBRL Reporting Station
Overcast Overcast  
Wind Chill: 41°   Ceiling: 2700
Heat Index: 48°   Visibility: 10mi
Dew Point: 38°   Wind: 20mph
Humidity: 68%   Direction: 340°NNW
Pressure: 30.16"   Gusts: 29mph
Location:  40.58°N, 90.97°W
Report Text: KBRL 310809Z AUTO 34017G25KT 10SM OVC027 09/03 A3016 RMK AO2 T00890033
Loading
Personal Weather Stations






























Interactive Weather Map
Tropical Storm Tracking
New forecast layout! Learn more

10-Day Weather Forecast

Advertisements
Track Severe Weather on mobile